sensor_id;sensor_type;location;lat;lon;timestamp;P1;durP1;ratioP1;P2;durP2;ratioP2
9518;SDS011;4797;50.220;8.782;2022-07-17T00:02:24;2.83;;;2.30;;
9518;SDS011;4797;50.220;8.782;2022-07-17T00:04:52;7.23;;;2.53;;
9518;SDS011;4797;50.220;8.782;2022-07-17T00:07:22;2.63;;;2.40;;
9518;SDS011;4797;50.220;8.782;2022-07-17T00:09:50;5.83;;;2.17;;
9518;SDS011;4797;50.220;8.782;2022-07-17T00:12:20;2.63;;;1.87;;
9518;SDS011;4797;50.220;8.782;2022-07-17T00:14:49;3.90;;;2.77;;
9518;SDS011;4797;50.220;8.782;2022-07-17T00:17:18;4.50;;;3.23;;
9518;SDS011;4797;50.220;8.782;2022-07-17T00:19:47;3.40;;;2.87;;
9518;SDS011;4797;50.220;8.782;2022-07-17T00:22:16;4.83;;;3.03;;
9518;SDS011;4797;50.220;8.782;2022-07-17T00:24:46;3.40;;;2.10;;
9518;SDS011;4797;50.220;8.782;2022-07-17T00:27:14;10.07;;;3.40;;
9518;SDS011;4797;50.220;8.782;2022-07-17T00:29:42;4.57;;;2.97;;
9518;SDS011;4797;50.220;8.782;2022-07-17T00:32:11;2.63;;;2.07;;
9518;SDS011;4797;50.220;8.782;2022-07-17T00:34:39;3.70;;;2.17;;
9518;SDS011;4797;50.220;8.782;2022-07-17T00:37:08;3.63;;;2.17;;
9518;SDS011;4797;50.220;8.782;2022-07-17T00:39:36;9.27;;;2.27;;
9518;SDS011;4797;50.220;8.782;2022-07-17T00:42:09;2.70;;;2.27;;
9518;SDS011;4797;50.220;8.782;2022-07-17T00:44:39;1.77;;;1.67;;
9518;SDS011;4797;50.220;8.782;2022-07-17T00:47:11;3.77;;;1.87;;
9518;SDS011;4797;50.220;8.782;2022-07-17T00:49:40;2.37;;;1.80;;
9518;SDS011;4797;50.220;8.782;2022-07-17T00:52:09;4.30;;;2.07;;
9518;SDS011;4797;50.220;8.782;2022-07-17T00:54:38;5.30;;;2.00;;
9518;SDS011;4797;50.220;8.782;2022-07-17T00:57:08;3.70;;;2.53;;
9518;SDS011;4797;50.220;8.782;2022-07-17T00:59:37;3.30;;;2.90;;
9518;SDS011;4797;50.220;8.782;2022-07-17T01:02:07;3.23;;;2.00;;
9518;SDS011;4797;50.220;8.782;2022-07-17T01:04:36;3.80;;;2.17;;
9518;SDS011;4797;50.220;8.782;2022-07-17T01:07:05;2.30;;;2.07;;
9518;SDS011;4797;50.220;8.782;2022-07-17T01:09:33;8.47;;;3.00;;
9518;SDS011;4797;50.220;8.782;2022-07-17T01:12:03;6.93;;;3.60;;
9518;SDS011;4797;50.220;8.782;2022-07-17T01:14:33;5.77;;;3.80;;
9518;SDS011;4797;50.220;8.782;2022-07-17T01:17:01;5.80;;;4.00;;
9518;SDS011;4797;50.220;8.782;2022-07-17T01:19:30;5.07;;;4.10;;
9518;SDS011;4797;50.220;8.782;2022-07-17T01:21:59;5.00;;;4.17;;
9518;SDS011;4797;50.220;8.782;2022-07-17T01:24:28;4.93;;;4.30;;
9518;SDS011;4797;50.220;8.782;2022-07-17T01:26:56;8.23;;;4.00;;
9518;SDS011;4797;50.220;8.782;2022-07-17T01:29:24;6.43;;;4.63;;
9518;SDS011;4797;50.220;8.782;2022-07-17T01:31:52;9.27;;;4.97;;
9518;SDS011;4797;50.220;8.782;2022-07-17T01:34:21;8.33;;;4.50;;
9518;SDS011;4797;50.220;8.782;2022-07-17T01:36:49;4.60;;;4.17;;
9518;SDS011;4797;50.220;8.782;2022-07-17T01:39:19;4.70;;;4.23;;
9518;SDS011;4797;50.220;8.782;2022-07-17T01:42:09;5.10;;;3.03;;
9518;SDS011;4797;50.220;8.782;2022-07-17T01:44:37;7.10;;;4.20;;
9518;SDS011;4797;50.220;8.782;2022-07-17T01:47:05;6.90;;;3.87;;
9518;SDS011;4797;50.220;8.782;2022-07-17T01:49:33;6.33;;;4.23;;
9518;SDS011;4797;50.220;8.782;2022-07-17T01:52:02;7.87;;;4.17;;
9518;SDS011;4797;50.220;8.782;2022-07-17T01:54:32;6.80;;;2.33;;
9518;SDS011;4797;50.220;8.782;2022-07-17T01:57:01;2.47;;;2.30;;
9518;SDS011;4797;50.220;8.782;2022-07-17T01:59:29;8.20;;;3.13;;
9518;SDS011;4797;50.220;8.782;2022-07-17T02:01:57;4.20;;;2.57;;
9518;SDS011;4797;50.220;8.782;2022-07-17T02:04:25;7.70;;;2.67;;
9518;SDS011;4797;50.220;8.782;2022-07-17T02:06:54;3.97;;;3.57;;
9518;SDS011;4797;50.220;8.782;2022-07-17T02:09:23;7.00;;;3.27;;
9518;SDS011;4797;50.220;8.782;2022-07-17T02:11:52;6.50;;;4.47;;
9518;SDS011;4797;50.220;8.782;2022-07-17T02:14:21;6.33;;;3.17;;
9518;SDS011;4797;50.220;8.782;2022-07-17T02:16:49;5.93;;;3.80;;
9518;SDS011;4797;50.220;8.782;2022-07-17T02:19:18;5.67;;;3.73;;
9518;SDS011;4797;50.220;8.782;2022-07-17T02:21:46;4.43;;;3.70;;
9518;SDS011;4797;50.220;8.782;2022-07-17T02:24:14;4.77;;;3.57;;
9518;SDS011;4797;50.220;8.782;2022-07-17T02:26:42;7.93;;;4.03;;
9518;SDS011;4797;50.220;8.782;2022-07-17T02:29:12;5.60;;;3.93;;
9518;SDS011;4797;50.220;8.782;2022-07-17T02:31:40;6.47;;;4.67;;
9518;SDS011;4797;50.220;8.782;2022-07-17T02:34:09;7.70;;;5.13;;
9518;SDS011;4797;50.220;8.782;2022-07-17T02:36:37;7.50;;;4.70;;
9518;SDS011;4797;50.220;8.782;2022-07-17T02:39:05;10.17;;;5.47;;
9518;SDS011;4797;50.220;8.782;2022-07-17T02:41:33;11.10;;;5.20;;
9518;SDS011;4797;50.220;8.782;2022-07-17T02:44:01;8.43;;;5.40;;
9518;SDS011;4797;50.220;8.782;2022-07-17T02:46:31;6.57;;;4.30;;
9518;SDS011;4797;50.220;8.782;2022-07-17T02:48:59;7.03;;;4.33;;
9518;SDS011;4797;50.220;8.782;2022-07-17T02:51:28;10.73;;;4.23;;
9518;SDS011;4797;50.220;8.782;2022-07-17T02:53:56;8.27;;;4.57;;
9518;SDS011;4797;50.220;8.782;2022-07-17T02:56:24;9.90;;;4.20;;
9518;SDS011;4797;50.220;8.782;2022-07-17T02:58:53;7.20;;;4.93;;
9518;SDS011;4797;50.220;8.782;2022-07-17T03:01:21;9.37;;;4.07;;
9518;SDS011;4797;50.220;8.782;2022-07-17T03:03:50;6.37;;;4.23;;
9518;SDS011;4797;50.220;8.782;2022-07-17T03:06:19;5.17;;;3.83;;
9518;SDS011;4797;50.220;8.782;2022-07-17T03:08:47;5.77;;;4.53;;
9518;SDS011;4797;50.220;8.782;2022-07-17T03:11:16;6.07;;;3.80;;
9518;SDS011;4797;50.220;8.782;2022-07-17T03:13:47;5.23;;;3.70;;
9518;SDS011;4797;50.220;8.782;2022-07-17T03:16:17;4.17;;;3.73;;
9518;SDS011;4797;50.220;8.782;2022-07-17T03:18:45;4.87;;;4.10;;
9518;SDS011;4797;50.220;8.782;2022-07-17T03:21:15;4.30;;;3.67;;
9518;SDS011;4797;50.220;8.782;2022-07-17T03:23:43;4.70;;;3.83;;
9518;SDS011;4797;50.220;8.782;2022-07-17T03:26:11;4.63;;;3.90;;
9518;SDS011;4797;50.220;8.782;2022-07-17T03:28:40;5.70;;;3.97;;
9518;SDS011;4797;50.220;8.782;2022-07-17T03:31:08;4.40;;;3.70;;
9518;SDS011;4797;50.220;8.782;2022-07-17T03:33:36;7.03;;;3.90;;
9518;SDS011;4797;50.220;8.782;2022-07-17T03:36:04;6.43;;;4.40;;
9518;SDS011;4797;50.220;8.782;2022-07-17T03:38:34;5.67;;;3.90;;
9518;SDS011;4797;50.220;8.782;2022-07-17T03:41:03;5.10;;;3.77;;
9518;SDS011;4797;50.220;8.782;2022-07-17T03:43:31;4.97;;;3.83;;
9518;SDS011;4797;50.220;8.782;2022-07-17T03:45:59;7.47;;;4.57;;
9518;SDS011;4797;50.220;8.782;2022-07-17T03:48:28;6.80;;;4.50;;
9518;SDS011;4797;50.220;8.782;2022-07-17T03:50:57;9.07;;;4.73;;
9518;SDS011;4797;50.220;8.782;2022-07-17T03:53:25;6.10;;;4.27;;
9518;SDS011;4797;50.220;8.782;2022-07-17T03:55:54;7.37;;;4.73;;
9518;SDS011;4797;50.220;8.782;2022-07-17T03:58:23;7.50;;;4.60;;
9518;SDS011;4797;50.220;8.782;2022-07-17T04:00:51;19.37;;;5.37;;
9518;SDS011;4797;50.220;8.782;2022-07-17T04:03:20;18.77;;;5.87;;
9518;SDS011;4797;50.220;8.782;2022-07-17T04:05:49;10.97;;;5.60;;
9518;SDS011;4797;50.220;8.782;2022-07-17T04:08:17;12.50;;;6.50;;
9518;SDS011;4797;50.220;8.782;2022-07-17T04:10:45;7.73;;;5.13;;
9518;SDS011;4797;50.220;8.782;2022-07-17T04:13:15;7.90;;;5.17;;
9518;SDS011;4797;50.220;8.782;2022-07-17T04:15:43;9.30;;;4.93;;
9518;SDS011;4797;50.220;8.782;2022-07-17T04:18:22;10.50;;;4.87;;
9518;SDS011;4797;50.220;8.782;2022-07-17T04:20:51;8.97;;;5.33;;
9518;SDS011;4797;50.220;8.782;2022-07-17T04:23:20;7.40;;;4.83;;
9518;SDS011;4797;50.220;8.782;2022-07-17T04:25:48;5.63;;;4.33;;
9518;SDS011;4797;50.220;8.782;2022-07-17T04:28:18;7.57;;;4.90;;
9518;SDS011;4797;50.220;8.782;2022-07-17T04:30:46;7.47;;;4.53;;
9518;SDS011;4797;50.220;8.782;2022-07-17T04:33:14;7.07;;;5.53;;
9518;SDS011;4797;50.220;8.782;2022-07-17T04:35:43;6.43;;;4.67;;
9518;SDS011;4797;50.220;8.782;2022-07-17T04:38:11;9.40;;;4.87;;
9518;SDS011;4797;50.220;8.782;2022-07-17T04:40:40;6.93;;;4.93;;
9518;SDS011;4797;50.220;8.782;2022-07-17T04:43:08;7.60;;;4.67;;
9518;SDS011;4797;50.220;8.782;2022-07-17T04:45:37;7.90;;;5.07;;
9518;SDS011;4797;50.220;8.782;2022-07-17T04:48:06;9.73;;;5.23;;
9518;SDS011;4797;50.220;8.782;2022-07-17T04:50:34;7.97;;;4.80;;
9518;SDS011;4797;50.220;8.782;2022-07-17T04:53:02;7.73;;;5.20;;
9518;SDS011;4797;50.220;8.782;2022-07-17T04:55:31;8.17;;;5.80;;
9518;SDS011;4797;50.220;8.782;2022-07-17T04:57:59;6.73;;;5.00;;
9518;SDS011;4797;50.220;8.782;2022-07-17T05:00:27;8.03;;;5.00;;
9518;SDS011;4797;50.220;8.782;2022-07-17T05:02:57;9.23;;;5.27;;
9518;SDS011;4797;50.220;8.782;2022-07-17T05:05:25;8.53;;;5.80;;
9518;SDS011;4797;50.220;8.782;2022-07-17T05:07:53;10.20;;;5.23;;
9518;SDS011;4797;50.220;8.782;2022-07-17T05:10:22;11.00;;;5.07;;
9518;SDS011;4797;50.220;8.782;2022-07-17T05:12:53;7.37;;;5.47;;
9518;SDS011;4797;50.220;8.782;2022-07-17T05:15:22;8.03;;;5.03;;
9518;SDS011;4797;50.220;8.782;2022-07-17T05:17:50;9.07;;;5.60;;
9518;SDS011;4797;50.220;8.782;2022-07-17T05:20:19;7.97;;;5.33;;
9518;SDS011;4797;50.220;8.782;2022-07-17T05:22:48;10.87;;;6.43;;
9518;SDS011;4797;50.220;8.782;2022-07-17T05:25:16;8.30;;;5.60;;
9518;SDS011;4797;50.220;8.782;2022-07-17T05:27:44;9.43;;;5.93;;
9518;SDS011;4797;50.220;8.782;2022-07-17T05:30:12;9.33;;;6.00;;
9518;SDS011;4797;50.220;8.782;2022-07-17T05:32:41;8.87;;;5.70;;
9518;SDS011;4797;50.220;8.782;2022-07-17T05:35:09;12.77;;;6.27;;
9518;SDS011;4797;50.220;8.782;2022-07-17T05:37:38;15.20;;;6.13;;
9518;SDS011;4797;50.220;8.782;2022-07-17T05:40:08;10.77;;;6.57;;
9518;SDS011;4797;50.220;8.782;2022-07-17T05:42:36;11.57;;;6.80;;
9518;SDS011;4797;50.220;8.782;2022-07-17T05:45:04;11.73;;;6.57;;
9518;SDS011;4797;50.220;8.782;2022-07-17T05:47:33;11.10;;;6.10;;
9518;SDS011;4797;50.220;8.782;2022-07-17T05:50:01;10.93;;;6.80;;
9518;SDS011;4797;50.220;8.782;2022-07-17T05:52:29;14.37;;;6.73;;
9518;SDS011;4797;50.220;8.782;2022-07-17T05:54:59;10.10;;;6.03;;
9518;SDS011;4797;50.220;8.782;2022-07-17T05:57:27;10.53;;;6.33;;
9518;SDS011;4797;50.220;8.782;2022-07-17T05:59:55;9.40;;;5.77;;
9518;SDS011;4797;50.220;8.782;2022-07-17T06:02:24;14.27;;;6.20;;
9518;SDS011;4797;50.220;8.782;2022-07-17T06:04:52;10.97;;;6.07;;
9518;SDS011;4797;50.220;8.782;2022-07-17T06:07:21;9.50;;;5.80;;
9518;SDS011;4797;50.220;8.782;2022-07-17T06:09:49;9.20;;;6.10;;
9518;SDS011;4797;50.220;8.782;2022-07-17T06:12:19;12.20;;;5.30;;
9518;SDS011;4797;50.220;8.782;2022-07-17T06:14:47;11.60;;;6.77;;
9518;SDS011;4797;50.220;8.782;2022-07-17T06:17:15;9.97;;;6.70;;
9518;SDS011;4797;50.220;8.782;2022-07-17T06:19:43;10.33;;;6.20;;
9518;SDS011;4797;50.220;8.782;2022-07-17T06:22:11;9.10;;;6.10;;
9518;SDS011;4797;50.220;8.782;2022-07-17T06:24:40;15.77;;;7.83;;
9518;SDS011;4797;50.220;8.782;2022-07-17T06:27:08;12.03;;;6.80;;
9518;SDS011;4797;50.220;8.782;2022-07-17T06:29:38;10.90;;;7.30;;
9518;SDS011;4797;50.220;8.782;2022-07-17T06:32:16;14.53;;;7.07;;
9518;SDS011;4797;50.220;8.782;2022-07-17T06:34:45;28.50;;;17.93;;
9518;SDS011;4797;50.220;8.782;2022-07-17T06:37:13;29.67;;;19.10;;
9518;SDS011;4797;50.220;8.782;2022-07-17T06:39:41;31.93;;;18.90;;
9518;SDS011;4797;50.220;8.782;2022-07-17T06:42:10;37.27;;;23.00;;
9518;SDS011;4797;50.220;8.782;2022-07-17T06:44:39;38.80;;;22.40;;
9518;SDS011;4797;50.220;8.782;2022-07-17T06:47:07;39.97;;;24.53;;
9518;SDS011;4797;50.220;8.782;2022-07-17T06:49:36;40.63;;;23.37;;
9518;SDS011;4797;50.220;8.782;2022-07-17T06:52:04;42.30;;;24.27;;
9518;SDS011;4797;50.220;8.782;2022-07-17T06:54:32;43.03;;;24.30;;
9518;SDS011;4797;50.220;8.782;2022-07-17T06:57:01;45.17;;;25.40;;
9518;SDS011;4797;50.220;8.782;2022-07-17T06:59:29;44.50;;;25.23;;
9518;SDS011;4797;50.220;8.782;2022-07-17T07:01:58;43.70;;;25.10;;
9518;SDS011;4797;50.220;8.782;2022-07-17T07:04:27;49.03;;;27.27;;
9518;SDS011;4797;50.220;8.782;2022-07-17T07:06:55;48.80;;;25.47;;
9518;SDS011;4797;50.220;8.782;2022-07-17T07:09:23;46.97;;;25.30;;
9518;SDS011;4797;50.220;8.782;2022-07-17T07:11:52;48.73;;;25.87;;
9518;SDS011;4797;50.220;8.782;2022-07-17T07:14:21;45.03;;;25.03;;
9518;SDS011;4797;50.220;8.782;2022-07-17T07:16:49;44.17;;;25.03;;
9518;SDS011;4797;50.220;8.782;2022-07-17T07:19:19;44.27;;;25.17;;
9518;SDS011;4797;50.220;8.782;2022-07-17T07:21:47;54.23;;;27.40;;
9518;SDS011;4797;50.220;8.782;2022-07-17T07:24:15;44.17;;;25.07;;
9518;SDS011;4797;50.220;8.782;2022-07-17T07:26:45;45.03;;;25.40;;
9518;SDS011;4797;50.220;8.782;2022-07-17T07:29:13;54.37;;;30.20;;
9518;SDS011;4797;50.220;8.782;2022-07-17T07:31:42;43.40;;;24.40;;
9518;SDS011;4797;50.220;8.782;2022-07-17T07:34:11;46.90;;;25.50;;
9518;SDS011;4797;50.220;8.782;2022-07-17T07:36:41;45.40;;;25.33;;
9518;SDS011;4797;50.220;8.782;2022-07-17T07:39:09;46.70;;;26.27;;
9518;SDS011;4797;50.220;8.782;2022-07-17T07:41:37;47.20;;;25.10;;
9518;SDS011;4797;50.220;8.782;2022-07-17T07:44:06;43.73;;;24.70;;
9518;SDS011;4797;50.220;8.782;2022-07-17T07:46:34;48.60;;;26.77;;
9518;SDS011;4797;50.220;8.782;2022-07-17T07:49:02;51.43;;;25.47;;
9518;SDS011;4797;50.220;8.782;2022-07-17T07:51:31;48.07;;;25.10;;
9518;SDS011;4797;50.220;8.782;2022-07-17T07:54:21;45.73;;;25.57;;
9518;SDS011;4797;50.220;8.782;2022-07-17T07:56:49;43.87;;;24.30;;
9518;SDS011;4797;50.220;8.782;2022-07-17T07:59:17;45.47;;;24.13;;
9518;SDS011;4797;50.220;8.782;2022-07-17T08:01:45;46.70;;;25.73;;
9518;SDS011;4797;50.220;8.782;2022-07-17T08:04:14;47.77;;;24.87;;
9518;SDS011;4797;50.220;8.782;2022-07-17T08:06:42;45.33;;;25.43;;
9518;SDS011;4797;50.220;8.782;2022-07-17T08:09:11;47.90;;;25.33;;
9518;SDS011;4797;50.220;8.782;2022-07-17T08:11:40;49.27;;;26.17;;
9518;SDS011;4797;50.220;8.782;2022-07-17T08:14:09;44.13;;;23.93;;
9518;SDS011;4797;50.220;8.782;2022-07-17T08:16:42;46.37;;;25.47;;
9518;SDS011;4797;50.220;8.782;2022-07-17T08:19:11;45.40;;;25.20;;
9518;SDS011;4797;50.220;8.782;2022-07-17T08:21:39;47.67;;;25.27;;
9518;SDS011;4797;50.220;8.782;2022-07-17T08:24:07;45.60;;;25.93;;
9518;SDS011;4797;50.220;8.782;2022-07-17T08:26:35;45.87;;;25.30;;
9518;SDS011;4797;50.220;8.782;2022-07-17T08:29:05;46.40;;;25.80;;
9518;SDS011;4797;50.220;8.782;2022-07-17T08:31:36;46.07;;;25.63;;
9518;SDS011;4797;50.220;8.782;2022-07-17T08:34:04;46.87;;;24.73;;
9518;SDS011;4797;50.220;8.782;2022-07-17T08:36:33;45.20;;;25.27;;
9518;SDS011;4797;50.220;8.782;2022-07-17T08:39:01;48.17;;;25.87;;
9518;SDS011;4797;50.220;8.782;2022-07-17T08:41:29;44.80;;;24.87;;
9518;SDS011;4797;50.220;8.782;2022-07-17T08:44:04;56.33;;;26.33;;
9518;SDS011;4797;50.220;8.782;2022-07-17T08:46:33;50.53;;;25.70;;
9518;SDS011;4797;50.220;8.782;2022-07-17T08:49:04;46.00;;;24.90;;
9518;SDS011;4797;50.220;8.782;2022-07-17T08:51:33;48.87;;;27.00;;
9518;SDS011;4797;50.220;8.782;2022-07-17T08:54:06;52.33;;;26.20;;
9518;SDS011;4797;50.220;8.782;2022-07-17T08:56:34;47.70;;;25.60;;
9518;SDS011;4797;50.220;8.782;2022-07-17T08:59:02;46.67;;;25.73;;
9518;SDS011;4797;50.220;8.782;2022-07-17T09:01:32;47.57;;;26.43;;
9518;SDS011;4797;50.220;8.782;2022-07-17T09:04:02;47.40;;;25.57;;
9518;SDS011;4797;50.220;8.782;2022-07-17T09:06:33;48.43;;;26.00;;
9518;SDS011;4797;50.220;8.782;2022-07-17T09:09:05;46.50;;;25.40;;
9518;SDS011;4797;50.220;8.782;2022-07-17T09:11:44;55.37;;;32.03;;
9518;SDS011;4797;50.220;8.782;2022-07-17T09:14:12;47.40;;;26.33;;
9518;SDS011;4797;50.220;8.782;2022-07-17T09:16:49;46.40;;;25.97;;
9518;SDS011;4797;50.220;8.782;2022-07-17T09:19:24;46.07;;;25.27;;
9518;SDS011;4797;50.220;8.782;2022-07-17T09:22:03;46.87;;;25.47;;
9518;SDS011;4797;50.220;8.782;2022-07-17T09:24:45;47.40;;;25.53;;
9518;SDS011;4797;50.220;8.782;2022-07-17T09:30:37;49.10;;;27.53;;
9518;SDS011;4797;50.220;8.782;2022-07-17T09:33:12;48.37;;;25.97;;
9518;SDS011;4797;50.220;8.782;2022-07-17T09:35:44;47.50;;;25.97;;
9518;SDS011;4797;50.220;8.782;2022-07-17T09:38:13;47.00;;;26.13;;
9518;SDS011;4797;50.220;8.782;2022-07-17T09:41:00;48.03;;;26.07;;
9518;SDS011;4797;50.220;8.782;2022-07-17T09:43:43;47.03;;;25.87;;
9518;SDS011;4797;50.220;8.782;2022-07-17T09:46:15;48.90;;;26.63;;
9518;SDS011;4797;50.220;8.782;2022-07-17T09:48:46;50.67;;;28.40;;
9518;SDS011;4797;50.220;8.782;2022-07-17T09:51:19;58.67;;;29.87;;
9518;SDS011;4797;50.220;8.782;2022-07-17T09:53:48;50.27;;;26.37;;
9518;SDS011;4797;50.220;8.782;2022-07-17T09:56:17;47.63;;;26.07;;
9518;SDS011;4797;50.220;8.782;2022-07-17T09:58:48;53.97;;;26.73;;
9518;SDS011;4797;50.220;8.782;2022-07-17T10:01:17;47.10;;;25.73;;
9518;SDS011;4797;50.220;8.782;2022-07-17T10:03:47;54.03;;;28.57;;
9518;SDS011;4797;50.220;8.782;2022-07-17T10:06:19;49.70;;;27.30;;
9518;SDS011;4797;50.220;8.782;2022-07-17T10:08:47;50.20;;;27.40;;
9518;SDS011;4797;50.220;8.782;2022-07-17T10:11:15;52.47;;;26.33;;
9518;SDS011;4797;50.220;8.782;2022-07-17T10:13:47;48.50;;;26.70;;
9518;SDS011;4797;50.220;8.782;2022-07-17T10:16:22;47.77;;;26.27;;
9518;SDS011;4797;50.220;8.782;2022-07-17T10:18:52;48.33;;;27.00;;
9518;SDS011;4797;50.220;8.782;2022-07-17T10:21:22;51.70;;;28.80;;
9518;SDS011;4797;50.220;8.782;2022-07-17T10:24:05;48.57;;;27.00;;
9518;SDS011;4797;50.220;8.782;2022-07-17T10:26:34;51.07;;;27.90;;
9518;SDS011;4797;50.220;8.782;2022-07-17T10:29:07;58.43;;;32.57;;
9518;SDS011;4797;50.220;8.782;2022-07-17T10:31:35;51.33;;;27.37;;
9518;SDS011;4797;50.220;8.782;2022-07-17T10:34:05;49.70;;;27.13;;
9518;SDS011;4797;50.220;8.782;2022-07-17T10:36:34;49.27;;;26.70;;
9518;SDS011;4797;50.220;8.782;2022-07-17T10:39:16;50.47;;;26.00;;
9518;SDS011;4797;50.220;8.782;2022-07-17T10:41:54;51.40;;;28.10;;
9518;SDS011;4797;50.220;8.782;2022-07-17T10:44:23;53.83;;;30.33;;
9518;SDS011;4797;50.220;8.782;2022-07-17T10:46:56;56.33;;;26.87;;
9518;SDS011;4797;50.220;8.782;2022-07-17T10:49:26;56.40;;;31.40;;
9518;SDS011;4797;50.220;8.782;2022-07-17T10:51:54;61.20;;;33.53;;
9518;SDS011;4797;50.220;8.782;2022-07-17T10:54:31;51.43;;;28.20;;
9518;SDS011;4797;50.220;8.782;2022-07-17T10:57:01;54.20;;;27.03;;
9518;SDS011;4797;50.220;8.782;2022-07-17T10:59:30;48.90;;;26.33;;
9518;SDS011;4797;50.220;8.782;2022-07-17T11:01:58;50.03;;;26.80;;
9518;SDS011;4797;50.220;8.782;2022-07-17T11:04:36;52.23;;;28.67;;
9518;SDS011;4797;50.220;8.782;2022-07-17T11:07:12;53.07;;;27.40;;
9518;SDS011;4797;50.220;8.782;2022-07-17T11:09:46;50.07;;;27.13;;
9518;SDS011;4797;50.220;8.782;2022-07-17T11:12:15;49.77;;;26.70;;
9518;SDS011;4797;50.220;8.782;2022-07-17T11:14:43;50.83;;;26.10;;
9518;SDS011;4797;50.220;8.782;2022-07-17T11:17:12;52.00;;;27.63;;
9518;SDS011;4797;50.220;8.782;2022-07-17T11:19:45;49.50;;;26.97;;
9518;SDS011;4797;50.220;8.782;2022-07-17T11:22:13;49.13;;;26.27;;
9518;SDS011;4797;50.220;8.782;2022-07-17T11:24:42;50.73;;;26.90;;
9518;SDS011;4797;50.220;8.782;2022-07-17T11:27:11;50.20;;;26.37;;
9518;SDS011;4797;50.220;8.782;2022-07-17T11:29:39;52.23;;;27.40;;
9518;SDS011;4797;50.220;8.782;2022-07-17T11:32:08;50.40;;;26.60;;
9518;SDS011;4797;50.220;8.782;2022-07-17T11:34:37;53.23;;;27.53;;
9518;SDS011;4797;50.220;8.782;2022-07-17T11:37:07;50.93;;;27.43;;
9518;SDS011;4797;50.220;8.782;2022-07-17T11:39:39;50.93;;;28.00;;
9518;SDS011;4797;50.220;8.782;2022-07-17T11:42:08;50.07;;;26.60;;
9518;SDS011;4797;50.220;8.782;2022-07-17T11:44:37;52.87;;;27.27;;
9518;SDS011;4797;50.220;8.782;2022-07-17T11:47:05;51.90;;;27.83;;
9518;SDS011;4797;50.220;8.782;2022-07-17T11:49:35;52.40;;;27.70;;
9518;SDS011;4797;50.220;8.782;2022-07-17T11:52:08;50.73;;;27.17;;
9518;SDS011;4797;50.220;8.782;2022-07-17T11:54:43;51.83;;;26.53;;
9518;SDS011;4797;50.220;8.782;2022-07-17T11:57:11;53.63;;;27.17;;
9518;SDS011;4797;50.220;8.782;2022-07-17T11:59:39;50.73;;;26.87;;
9518;SDS011;4797;50.220;8.782;2022-07-17T12:02:08;53.03;;;26.67;;
9518;SDS011;4797;50.220;8.782;2022-07-17T12:04:47;51.27;;;27.47;;
9518;SDS011;4797;50.220;8.782;2022-07-17T12:07:17;52.50;;;28.33;;
9518;SDS011;4797;50.220;8.782;2022-07-17T12:09:45;52.30;;;28.80;;
9518;SDS011;4797;50.220;8.782;2022-07-17T12:12:20;58.97;;;28.77;;
9518;SDS011;4797;50.220;8.782;2022-07-17T12:14:50;50.63;;;27.40;;
9518;SDS011;4797;50.220;8.782;2022-07-17T12:17:18;51.33;;;27.00;;
9518;SDS011;4797;50.220;8.782;2022-07-17T12:19:48;51.87;;;26.70;;
9518;SDS011;4797;50.220;8.782;2022-07-17T12:22:17;56.77;;;27.27;;
9518;SDS011;4797;50.220;8.782;2022-07-17T12:24:46;84.73;;;47.60;;
9518;SDS011;4797;50.220;8.782;2022-07-17T12:27:14;91.77;;;50.13;;
9518;SDS011;4797;50.220;8.782;2022-07-17T12:29:43;100.47;;;54.80;;
9518;SDS011;4797;50.220;8.782;2022-07-17T12:32:13;102.53;;;55.60;;
9518;SDS011;4797;50.220;8.782;2022-07-17T12:34:43;99.77;;;55.70;;
9518;SDS011;4797;50.220;8.782;2022-07-17T12:37:12;98.20;;;55.70;;
9518;SDS011;4797;50.220;8.782;2022-07-17T12:39:43;102.87;;;56.63;;
9518;SDS011;4797;50.220;8.782;2022-07-17T12:42:11;101.97;;;57.37;;
9518;SDS011;4797;50.220;8.782;2022-07-17T12:44:40;100.30;;;56.87;;
9518;SDS011;4797;50.220;8.782;2022-07-17T12:47:09;106.20;;;59.87;;
9518;SDS011;4797;50.220;8.782;2022-07-17T12:49:37;110.17;;;64.07;;
9518;SDS011;4797;50.220;8.782;2022-07-17T12:52:07;131.50;;;76.73;;
9518;SDS011;4797;50.220;8.782;2022-07-17T12:54:36;114.70;;;67.77;;
9518;SDS011;4797;50.220;8.782;2022-07-17T12:57:05;100.13;;;57.97;;
9518;SDS011;4797;50.220;8.782;2022-07-17T12:59:34;116.07;;;68.20;;
9518;SDS011;4797;50.220;8.782;2022-07-17T13:02:02;110.03;;;64.77;;
9518;SDS011;4797;50.220;8.782;2022-07-17T13:04:30;114.47;;;67.73;;
9518;SDS011;4797;50.220;8.782;2022-07-17T13:06:59;115.93;;;66.90;;
9518;SDS011;4797;50.220;8.782;2022-07-17T13:09:28;117.83;;;69.40;;
9518;SDS011;4797;50.220;8.782;2022-07-17T13:11:56;109.57;;;63.33;;
9518;SDS011;4797;50.220;8.782;2022-07-17T13:14:26;103.93;;;58.90;;
9518;SDS011;4797;50.220;8.782;2022-07-17T13:16:54;105.10;;;60.07;;
9518;SDS011;4797;50.220;8.782;2022-07-17T13:19:24;105.47;;;61.13;;
9518;SDS011;4797;50.220;8.782;2022-07-17T13:21:52;109.23;;;63.80;;
9518;SDS011;4797;50.220;8.782;2022-07-17T13:24:21;98.60;;;55.60;;
9518;SDS011;4797;50.220;8.782;2022-07-17T13:26:49;102.73;;;58.10;;
9518;SDS011;4797;50.220;8.782;2022-07-17T13:29:18;100.10;;;56.40;;
9518;SDS011;4797;50.220;8.782;2022-07-17T13:31:50;100.20;;;55.00;;
9518;SDS011;4797;50.220;8.782;2022-07-17T13:34:22;94.33;;;53.87;;
9518;SDS011;4797;50.220;8.782;2022-07-17T13:36:50;96.77;;;55.23;;
9518;SDS011;4797;50.220;8.782;2022-07-17T13:39:18;104.30;;;56.80;;
9518;SDS011;4797;50.220;8.782;2022-07-17T13:41:47;104.10;;;58.17;;
9518;SDS011;4797;50.220;8.782;2022-07-17T13:44:15;95.77;;;53.93;;
9518;SDS011;4797;50.220;8.782;2022-07-17T13:46:43;99.73;;;55.97;;
9518;SDS011;4797;50.220;8.782;2022-07-17T13:49:13;103.67;;;59.13;;
9518;SDS011;4797;50.220;8.782;2022-07-17T13:51:41;106.87;;;61.40;;
9518;SDS011;4797;50.220;8.782;2022-07-17T13:54:12;108.57;;;62.07;;
9518;SDS011;4797;50.220;8.782;2022-07-17T13:56:40;100.27;;;57.43;;
9518;SDS011;4797;50.220;8.782;2022-07-17T13:59:08;104.13;;;58.93;;
9518;SDS011;4797;50.220;8.782;2022-07-17T14:01:37;104.90;;;59.77;;
9518;SDS011;4797;50.220;8.782;2022-07-17T14:04:05;105.53;;;61.23;;
9518;SDS011;4797;50.220;8.782;2022-07-17T14:06:35;111.70;;;64.87;;
9518;SDS011;4797;50.220;8.782;2022-07-17T14:09:03;108.53;;;62.67;;
9518;SDS011;4797;50.220;8.782;2022-07-17T14:11:31;112.23;;;63.77;;
9518;SDS011;4797;50.220;8.782;2022-07-17T14:13:59;105.33;;;62.57;;
9518;SDS011;4797;50.220;8.782;2022-07-17T14:16:28;106.30;;;61.13;;
9518;SDS011;4797;50.220;8.782;2022-07-17T14:18:57;100.17;;;57.50;;
9518;SDS011;4797;50.220;8.782;2022-07-17T14:21:26;105.20;;;61.10;;
9518;SDS011;4797;50.220;8.782;2022-07-17T14:23:55;97.10;;;55.60;;
9518;SDS011;4797;50.220;8.782;2022-07-17T14:26:24;88.70;;;50.87;;
9518;SDS011;4797;50.220;8.782;2022-07-17T14:28:52;52.13;;;28.57;;
9518;SDS011;4797;50.220;8.782;2022-07-17T14:31:21;56.03;;;30.17;;
9518;SDS011;4797;50.220;8.782;2022-07-17T14:33:49;54.63;;;29.57;;
9518;SDS011;4797;50.220;8.782;2022-07-17T14:36:18;45.53;;;26.07;;
9518;SDS011;4797;50.220;8.782;2022-07-17T14:38:46;33.17;;;20.13;;
9518;SDS011;4797;50.220;8.782;2022-07-17T14:41:16;11.70;;;6.10;;
9518;SDS011;4797;50.220;8.782;2022-07-17T14:43:45;11.83;;;7.03;;
9518;SDS011;4797;50.220;8.782;2022-07-17T14:46:14;45.63;;;25.30;;
9518;SDS011;4797;50.220;8.782;2022-07-17T14:48:42;49.33;;;26.63;;
9518;SDS011;4797;50.220;8.782;2022-07-17T14:51:11;45.07;;;25.10;;
9518;SDS011;4797;50.220;8.782;2022-07-17T14:53:39;52.33;;;27.93;;
9518;SDS011;4797;50.220;8.782;2022-07-17T14:56:08;52.87;;;28.40;;
9518;SDS011;4797;50.220;8.782;2022-07-17T14:58:38;55.27;;;29.13;;
9518;SDS011;4797;50.220;8.782;2022-07-17T15:01:07;59.60;;;29.07;;
9518;SDS011;4797;50.220;8.782;2022-07-17T15:03:35;54.00;;;29.47;;
9518;SDS011;4797;50.220;8.782;2022-07-17T15:06:03;51.13;;;27.27;;
9518;SDS011;4797;50.220;8.782;2022-07-17T15:08:32;58.47;;;27.00;;
9518;SDS011;4797;50.220;8.782;2022-07-17T15:11:02;35.67;;;20.83;;
9518;SDS011;4797;50.220;8.782;2022-07-17T15:13:30;11.13;;;7.07;;
9518;SDS011;4797;50.220;8.782;2022-07-17T15:16:00;13.50;;;7.83;;